createdAt,value
2018-11-27T00:03:34.014Z,60.50
2018-11-27T00:08:39.231Z,60.50
2018-11-27T00:13:43.108Z,60.50
2018-11-27T00:18:48.496Z,60.50
2018-11-27T00:23:52.535Z,60.50
2018-11-27T00:28:56.597Z,60.50
2018-11-27T00:34:01.001Z,60.50
2018-11-27T00:39:06.888Z,60.40
2018-11-27T00:44:12.315Z,60.50
2018-11-27T00:49:16.154Z,60.40
2018-11-27T00:54:20.110Z,60.50
2018-11-27T00:59:24.543Z,60.40
2018-11-27T01:04:29.151Z,60.50
2018-11-27T01:09:34.030Z,60.40
2018-11-27T01:14:37.799Z,60.40
2018-11-27T01:19:42.035Z,60.40
2018-11-27T01:24:47.423Z,60.30
2018-11-27T01:29:53.136Z,60.30
2018-11-27T01:34:57.417Z,60.30
2018-11-27T01:40:01.312Z,60.30
2018-11-27T01:45:05.696Z,60.20
2018-11-27T01:50:13.586Z,60.20
2018-11-27T01:55:22.892Z,60.20
2018-11-27T02:00:30.357Z,60.20
2018-11-27T02:05:34.555Z,60.10
2018-11-27T02:10:38.249Z,60.10
2018-11-27T02:15:41.978Z,60.10
2018-11-27T02:20:47.001Z,60.10
2018-11-27T02:25:50.652Z,60.10
2018-11-27T02:31:01.266Z,60.00
2018-11-27T02:36:05.315Z,60.00
2018-11-27T02:41:09.307Z,60.00
2018-11-27T02:46:13.296Z,59.90
2018-11-27T02:51:17.000Z,60.00
2018-11-27T02:56:20.892Z,60.00
2018-11-27T03:01:24.903Z,59.90
2018-11-27T03:06:44.606Z,60.00
2018-11-27T03:11:48.276Z,59.90
2018-11-27T03:16:52.331Z,59.80
2018-11-27T03:21:55.908Z,59.80
2018-11-27T03:26:59.605Z,59.80
2018-11-27T03:32:03.233Z,59.80
2018-11-27T03:53:30.424Z,59.60
2018-11-27T04:04:09.924Z,59.60
2018-11-27T04:09:13.932Z,59.50
2018-11-27T04:14:17.617Z,59.50
2018-11-27T04:19:22.651Z,59.50
2018-11-27T04:24:27.405Z,59.40
2018-11-27T04:29:31.206Z,59.50
2018-11-27T04:34:35.134Z,59.50
2018-11-27T04:39:39.263Z,59.50
2018-11-27T04:44:43.300Z,59.50
2018-11-27T04:49:48.255Z,59.40
2018-11-27T04:55:23.749Z,59.40
2018-11-27T05:00:27.633Z,59.50
2018-11-27T05:05:34.705Z,59.50
2018-11-27T05:10:38.320Z,59.40
2018-11-27T05:15:42.141Z,59.50
2018-11-27T05:20:46.485Z,59.40
2018-11-27T05:31:23.245Z,59.50
2018-11-27T05:36:26.876Z,59.50
2018-11-27T05:41:30.675Z,59.60
2018-11-27T05:46:34.469Z,59.60
2018-11-27T05:51:38.103Z,59.70
2018-11-27T06:02:10.007Z,59.70
2018-11-27T06:07:13.694Z,59.70
2018-11-27T06:12:17.587Z,59.70
2018-11-27T06:17:21.386Z,59.70
2018-11-27T06:22:24.962Z,59.80
2018-11-27T06:27:28.800Z,59.30
2018-11-27T06:32:33.257Z,59.80
2018-11-27T06:37:36.828Z,60.30
2018-11-27T06:42:40.418Z,59.80
2018-11-27T06:47:44.830Z,59.80
2018-11-27T06:52:49.713Z,59.80
2018-11-27T06:57:54.031Z,59.90
2018-11-27T07:02:58.585Z,59.90
2018-11-27T07:08:02.263Z,60.00
2018-11-27T07:13:13.438Z,60.00
2018-11-27T07:18:17.140Z,60.00
2018-11-27T07:23:20.980Z,60.00
2018-11-27T07:28:25.974Z,60.00
2018-11-27T07:33:29.835Z,60.80
2018-11-27T07:38:34.493Z,60.10
2018-11-27T07:43:38.275Z,60.20
2018-11-27T07:48:54.077Z,60.10
2018-11-27T07:53:58.183Z,60.20
2018-11-27T07:59:02.965Z,60.20
2018-11-27T08:04:07.536Z,60.20
2018-11-27T08:09:12.013Z,61.00
2018-11-27T08:14:16.661Z,59.90
2018-11-27T08:19:22.661Z,60.20
2018-11-27T08:24:26.719Z,60.30
2018-11-27T08:29:30.713Z,60.40
2018-11-27T08:34:34.856Z,60.40
2018-11-27T08:39:38.999Z,60.50
2018-11-27T08:44:43.249Z,60.40
2018-11-27T08:49:46.850Z,60.40
2018-11-27T08:54:50.553Z,60.40
2018-11-27T08:59:54.542Z,60.40
2018-11-27T09:04:58.504Z,60.40
2018-11-27T09:10:02.143Z,60.40
2018-11-27T09:15:06.488Z,60.40
2018-11-27T09:20:11.297Z,60.60
2018-11-27T09:25:15.299Z,60.50
2018-11-27T09:30:21.466Z,60.50
2018-11-27T09:35:25.156Z,61.30
2018-11-27T09:40:28.780Z,60.60
2018-11-27T09:45:32.993Z,60.40
2018-11-27T09:50:36.972Z,60.40
2018-11-27T09:55:40.647Z,60.40
2018-11-27T10:00:44.612Z,60.30
2018-11-27T10:05:48.616Z,60.30
2018-11-27T10:10:52.917Z,61.20
2018-11-27T10:15:56.890Z,60.20
2018-11-27T10:21:00.578Z,60.20
2018-11-27T10:26:04.232Z,60.30
2018-11-27T10:31:08.203Z,60.20
2018-11-27T10:36:12.089Z,60.20
2018-11-27T10:41:16.229Z,60.30
2018-11-27T10:46:20.157Z,60.20
2018-11-27T10:51:24.534Z,60.20
2018-11-27T10:56:28.517Z,60.30
2018-11-27T11:01:37.757Z,60.10
2018-11-27T11:06:47.909Z,60.10
2018-11-27T11:11:51.727Z,60.20
2018-11-27T11:16:55.790Z,60.10
2018-11-27T11:21:59.407Z,60.10
2018-11-27T11:27:03.759Z,60.00
2018-11-27T11:32:07.599Z,60.00
2018-11-27T11:37:11.204Z,60.00
2018-11-27T11:42:15.271Z,59.90
2018-11-27T11:47:32.286Z,59.80
2018-11-27T11:52:36.368Z,59.90
2018-11-27T11:57:40.293Z,59.80
2018-11-27T12:02:44.507Z,60.50
2018-11-27T12:07:48.615Z,59.80
2018-11-27T12:12:52.699Z,59.70
2018-11-27T12:17:56.403Z,59.70
2018-11-27T12:23:00.451Z,59.70
2018-11-27T12:28:04.995Z,59.60
2018-11-27T12:33:08.654Z,59.60
2018-11-27T12:38:12.868Z,59.60
2018-11-27T12:43:16.949Z,59.60
2018-11-27T12:48:21.122Z,59.50
2018-11-27T12:53:24.939Z,59.50
2018-11-27T12:58:28.818Z,59.50
2018-11-27T13:03:32.520Z,59.50
2018-11-27T13:08:36.643Z,59.50
2018-11-27T13:13:41.740Z,59.10
2018-11-27T13:18:44.467Z,59.50
2018-11-27T13:23:48.193Z,59.40
2018-11-27T13:28:51.892Z,59.10
2018-11-27T13:34:00.656Z,59.30
2018-11-27T13:39:15.296Z,59.30
2018-11-27T13:44:19.015Z,59.20
2018-11-27T13:49:23.013Z,59.20
2018-11-27T13:54:27.138Z,59.30
2018-11-27T13:59:30.959Z,59.20
2018-11-27T14:04:34.736Z,59.20
2018-11-27T14:09:38.996Z,59.30
2018-11-27T14:14:42.696Z,59.30
2018-11-27T14:19:46.637Z,59.30
2018-11-27T14:24:50.244Z,59.40
2018-11-27T14:29:53.818Z,60.00
2018-11-27T14:34:59.872Z,59.40
2018-11-27T14:40:01.679Z,59.30
2018-11-27T14:45:06.298Z,59.30
2018-11-27T14:50:11.228Z,59.30
2018-11-27T14:55:17.072Z,59.20
2018-11-27T15:00:21.917Z,59.20
2018-11-27T15:05:35.177Z,59.20
2018-11-27T15:10:39.355Z,59.70
2018-11-27T15:15:43.367Z,59.10
2018-11-27T15:20:47.115Z,59.10
2018-11-27T15:25:51.240Z,59.10
2018-11-27T15:30:54.941Z,59.10
2018-11-27T15:35:58.617Z,59.00
2018-11-27T15:41:02.390Z,58.90
2018-11-27T15:46:06.441Z,58.90
2018-11-27T15:51:10.228Z,58.90
2018-11-27T15:56:14.197Z,58.90
2018-11-27T16:01:18.726Z,58.80
2018-11-27T16:06:22.472Z,58.80
2018-11-27T16:11:26.375Z,58.80
2018-11-27T16:16:30.190Z,58.80
2018-11-27T16:21:34.344Z,58.90
2018-11-27T16:26:38.090Z,58.90
2018-11-27T16:31:42.344Z,58.90
2018-11-27T16:36:46.266Z,58.90
2018-11-27T16:41:50.048Z,58.90
2018-11-27T16:46:53.550Z,59.00
2018-11-27T16:51:57.991Z,58.90
2018-11-27T16:57:01.851Z,58.90
2018-11-27T17:02:05.840Z,59.20
2018-11-27T17:07:09.637Z,59.00
2018-11-27T17:12:13.945Z,59.00
2018-11-27T17:17:17.691Z,59.00
2018-11-27T17:22:21.431Z,59.10
2018-11-27T17:27:25.346Z,59.10
2018-11-27T17:32:29.315Z,59.10
2018-11-27T17:37:33.444Z,59.10
2018-11-27T17:42:37.664Z,59.00
2018-11-27T17:47:41.437Z,59.10
2018-11-27T17:52:45.318Z,59.10
2018-11-27T17:57:48.931Z,59.00
2018-11-27T18:02:53.974Z,59.10
2018-11-27T18:07:57.746Z,59.10
2018-11-27T18:13:01.530Z,59.10
2018-11-27T18:18:05.671Z,59.10
2018-11-27T18:23:12.197Z,59.10
2018-11-27T18:28:16.007Z,59.10
2018-11-27T18:33:33.279Z,59.00
2018-11-27T18:38:42.888Z,58.80
2018-11-27T18:43:46.497Z,58.90
2018-11-27T18:48:50.198Z,58.90
2018-11-27T18:53:55.032Z,58.80
2018-11-27T18:58:58.340Z,58.80
2018-11-27T19:04:01.949Z,58.70
2018-11-27T19:09:09.026Z,58.70
2018-11-27T19:14:12.948Z,58.60
2018-11-27T19:19:17.104Z,58.60
2018-11-27T19:24:21.021Z,58.60
2018-11-27T19:29:24.748Z,58.40
2018-11-27T19:34:28.284Z,58.40
2018-11-27T19:39:32.016Z,58.30
2018-11-27T19:44:36.308Z,58.30
2018-11-27T19:49:40.391Z,58.30
2018-11-27T19:54:44.350Z,58.20
2018-11-27T19:59:48.416Z,58.30
2018-11-27T20:04:52.229Z,58.20
2018-11-27T20:09:56.162Z,58.20
2018-11-27T20:15:01.045Z,58.10
2018-11-27T20:20:10.346Z,57.50
2018-11-27T20:41:40.466Z,57.90
2018-11-27T20:46:46.316Z,57.90
2018-11-27T20:51:55.404Z,57.90
2018-11-27T20:56:59.852Z,57.80
2018-11-27T21:18:32.253Z,57.80
2018-11-27T21:23:36.457Z,57.70
2018-11-27T21:28:40.853Z,57.70
2018-11-27T21:33:45.641Z,57.70
2018-11-27T21:38:49.488Z,57.70
2018-11-27T21:43:53.593Z,57.60
2018-11-27T21:48:57.327Z,57.60
2018-11-27T21:54:13.490Z,57.60
2018-11-27T22:04:45.550Z,57.50
2018-11-27T22:15:21.184Z,57.40
2018-11-27T22:25:53.084Z,57.40
2018-11-27T22:30:56.949Z,57.40
2018-11-27T22:36:00.497Z,57.40
2018-11-27T22:41:05.280Z,57.30
2018-11-27T22:46:08.836Z,57.30
2018-11-27T22:51:12.767Z,57.30
2018-11-27T22:56:16.421Z,57.30
2018-11-27T23:01:20.149Z,57.30
2018-11-27T23:06:24.019Z,57.90
2018-11-27T23:11:27.769Z,57.20
2018-11-27T23:22:06.419Z,57.20
2018-11-27T23:27:11.453Z,57.10
2018-11-27T23:32:15.384Z,57.00
2018-11-27T23:37:19.220Z,57.10
2018-11-27T23:42:24.375Z,57.10
2018-11-27T23:47:28.048Z,57.00
2018-11-27T23:52:32.718Z,57.00
2018-11-27T23:57:36.606Z,57.00
